Time;durP1;ratioP1;P1;durP2;ratioP2;P2;SDS_P1;SDS_P2;PMS_P1;PMS_P2;Temp;Humidity;BMP_temperature;BMP_pressure;BME280_temperature;BME280_humidity;BME280_pressure;Samples;Min_cycle;Max_cycle;Signal;HPM_P1;HPM_P2
2023/09/02 00:01:59;;;;;;;6.10;2.10;;;;;;;12.69;100.00;99669.61;109082;1258;74629;-65
2023/09/02 00:04:45;;;;;;;6.30;2.20;;;;;;;12.68;100.00;99675.56;109026;1258;69408;-66
2023/09/02 00:07:32;;;;;;;8.30;2.00;;;;;;;12.66;100.00;99672.74;109063;1258;72671;-64
2023/09/02 00:10:18;;;;;;;8.60;1.90;;;;;;;12.65;100.00;99670.73;108930;1259;58233;-65
2023/09/02 00:13:04;;;;;;;8.30;2.20;;;;;;;12.64;100.00;99672.97;109023;1259;61353;-66
2023/09/02 00:15:50;;;;;;;6.20;2.10;;;;;;;12.62;100.00;99672.92;109039;1259;74200;-67
2023/09/02 00:18:37;;;;;;;6.50;2.00;;;;;;;12.62;100.00;99675.09;109026;1258;67888;-65
2023/09/02 00:21:24;;;;;;;8.40;2.50;;;;;;;12.59;100.00;99673.55;109014;1259;73139;-66
2023/09/02 00:24:10;;;;;;;7.70;2.00;;;;;;;12.57;100.00;99671.63;109027;1258;58107;-65
2023/09/02 00:26:56;;;;;;;8.70;2.10;;;;;;;12.56;100.00;99669.44;109049;1258;61409;-65
2023/09/02 00:29:43;;;;;;;8.00;2.30;;;;;;;12.53;100.00;99670.38;109039;1258;73988;-66
2023/09/02 00:32:29;;;;;;;7.40;2.30;;;;;;;12.53;100.00;99672.33;109006;1258;69436;-64
2023/09/02 00:35:16;;;;;;;6.70;2.20;;;;;;;12.53;100.00;99676.48;109016;1259;73974;-64
2023/09/02 00:38:02;;;;;;;10.00;2.70;;;;;;;12.52;100.00;99679.05;109001;1258;60435;-64
2023/09/02 00:41:00;;;;;;;8.50;2.50;;;;;;;12.51;100.00;99679.35;109016;1258;60494;-64
2023/09/02 00:43:47;;;;;;;8.60;2.60;;;;;;;12.50;100.00;99681.58;109004;1259;73912;-65
2023/09/02 00:46:34;;;;;;;8.40;2.50;;;;;;;12.50;100.00;99685.10;109042;1258;68669;-64
2023/09/02 00:49:21;;;;;;;9.90;2.60;;;;;;;12.49;100.00;99679.17;109071;1257;71049;-66
2023/09/02 00:52:08;;;;;;;6.80;2.00;;;;;;;12.49;100.00;99683.77;109106;1258;60931;-64
2023/09/02 00:54:54;;;;;;;7.00;2.40;;;;;;;12.49;100.00;99685.55;109077;1257;61121;-63
2023/09/02 00:57:42;;;;;;;5.90;2.20;;;;;;;12.47;100.00;99691.20;109046;1258;72568;-67
2023/09/02 01:00:29;;;;;;;6.80;2.30;;;;;;;12.45;100.00;99686.61;109101;1257;69192;-68
2023/09/02 01:03:15;;;;;;;6.70;2.40;;;;;;;12.44;100.00;99688.79;109062;1257;71219;-66
2023/09/02 01:06:03;;;;;;;9.50;2.30;;;;;;;12.43;100.00;99687.30;109119;1262;58447;-64
2023/09/02 01:08:50;;;;;;;6.20;2.30;;;;;;;12.43;100.00;99695.15;109119;1257;61201;-65
2023/09/02 01:11:37;;;;;;;7.60;2.10;;;;;;;12.42;100.00;99689.52;109061;1258;75032;-65
2023/09/02 01:14:23;;;;;;;7.00;2.30;;;;;;;12.43;100.00;99690.73;109151;1257;67698;-65
2023/09/02 01:17:09;;;;;;;6.90;2.30;;;;;;;12.42;100.00;99692.36;109069;1257;73448;-66
2023/09/02 01:19:58;;;;;;;6.20;2.00;;;;;;;12.43;100.00;99692.66;109022;1258;59615;-66
2023/09/02 01:23:23;;;;;;;6.20;2.20;;;;;;;12.42;100.00;99695.55;109061;1262;61097;-67
2023/09/02 01:27:06;;;;;;;9.40;2.40;;;;;;;12.43;100.00;99690.69;109041;1258;74896;-67
2023/09/02 01:30:21;;;;;;;6.60;2.10;;;;;;;12.42;100.00;99696.16;109001;1257;67122;-66
2023/09/02 01:33:09;;;;;;;8.80;2.20;;;;;;;12.40;100.00;99695.25;109055;1260;73412;-64
2023/09/02 01:35:59;;;;;;;6.20;2.00;;;;;;;12.38;100.00;99698.42;108963;1257;60397;-66
2023/09/02 01:38:46;;;;;;;6.50;2.20;;;;;;;12.39;100.00;99702.83;109053;1257;61235;-65
2023/09/02 01:41:32;;;;;;;7.70;2.20;;;;;;;12.39;100.00;99700.88;109086;1257;73728;-65
2023/09/02 01:44:19;;;;;;;9.10;2.60;;;;;;;12.39;100.00;99701.73;109118;1258;68900;-65
2023/09/02 01:47:07;;;;;;;7.20;1.80;;;;;;;12.39;100.00;99698.31;109135;1258;71182;-66
2023/09/02 01:49:54;;;;;;;6.60;2.10;;;;;;;12.39;100.00;99698.00;109093;1262;58292;-65
2023/09/02 01:52:42;;;;;;;6.80;2.10;;;;;;;12.39;100.00;99700.33;109136;1257;60267;-66
2023/09/02 01:55:29;;;;;;;8.60;2.10;;;;;;;12.39;100.00;99703.53;108953;1258;74707;-65
2023/09/02 01:58:16;;;;;;;5.70;2.20;;;;;;;12.40;100.00;99705.36;109067;1257;67951;-65
2023/09/02 02:01:03;;;;;;;7.50;2.30;;;;;;;12.41;100.00;99706.73;109007;1260;73472;-64
2023/09/02 02:04:10;;;;;;;7.30;2.30;;;;;;;12.42;100.00;99709.88;108994;1261;58555;-65
2023/09/02 02:07:04;;;;;;;7.50;2.30;;;;;;;12.41;100.00;99710.06;109026;1258;58976;-65
2023/09/02 02:09:57;;;;;;;6.60;2.10;;;;;;;12.41;100.00;99711.83;108833;1260;74760;-67
2023/09/02 02:12:44;;;;;;;6.30;2.70;;;;;;;12.41;100.00;99714.18;109016;1259;68922;-66
2023/09/02 02:15:30;;;;;;;7.50;2.30;;;;;;;12.41;100.00;99715.23;108991;1263;73524;-64
2023/09/02 02:18:16;;;;;;;8.50;2.10;;;;;;;12.42;100.00;99717.45;108984;1260;59379;-66
2023/09/02 02:21:04;;;;;;;7.90;2.50;;;;;;;12.42;100.00;99719.92;109015;1260;59945;-65
2023/09/02 02:23:50;;;;;;;6.90;2.40;;;;;;;12.42;100.00;99719.45;109047;1259;74844;-64
2023/09/02 02:26:36;;;;;;;9.00;2.60;;;;;;;12.44;100.00;99719.97;109072;1259;67948;-65
2023/09/02 02:29:22;;;;;;;6.50;2.20;;;;;;;12.44;100.00;99717.66;108993;1259;73589;-65
2023/09/02 02:32:09;;;;;;;8.40;2.50;;;;;;;12.44;100.00;99719.10;109049;1261;60621;-64
2023/09/02 02:34:55;;;;;;;8.70;2.90;;;;;;;12.44;100.00;99717.33;108875;1261;61199;-66
2023/09/02 02:37:44;;;;;;;7.00;2.60;;;;;;;12.44;100.00;99719.58;109054;1260;73868;-65
2023/09/02 02:40:30;;;;;;;9.90;2.70;;;;;;;12.45;100.00;99722.70;109028;1260;69020;-66
2023/09/02 02:43:16;;;;;;;6.70;2.30;;;;;;;12.45;100.00;99724.48;109108;1258;73729;-64
2023/09/02 02:46:03;;;;;;;7.30;2.30;;;;;;;12.45;100.00;99728.42;109081;1257;59415;-65
2023/09/02 02:48:50;;;;;;;7.10;2.50;;;;;;;12.44;100.00;99732.08;109092;1257;59952;-65
2023/09/02 02:51:36;;;;;;;7.80;3.20;;;;;;;12.44;100.00;99728.98;109105;1257;73938;-64
2023/09/02 02:54:22;;;;;;;9.20;2.80;;;;;;;12.45;100.00;99733.58;109051;1257;67971;-65
2023/09/02 02:57:09;;;;;;;8.10;2.50;;;;;;;12.44;100.00;99731.17;109049;1257;71781;-65
2023/09/02 02:59:55;;;;;;;9.90;3.00;;;;;;;12.43;100.00;99733.40;109116;1257;58587;-64
2023/09/02 03:02:42;;;;;;;8.80;2.50;;;;;;;12.42;100.00;99735.31;109070;1257;60182;-65
2023/09/02 03:05:29;;;;;;;7.30;2.50;;;;;;;12.41;100.00;99737.84;109091;1257;72521;-66
2023/09/02 03:08:15;;;;;;;7.30;2.60;;;;;;;12.42;100.00;99736.17;109074;1260;67958;-64
2023/09/02 03:11:07;;;;;;;13.50;3.30;;;;;;;12.42;100.00;99734.58;108951;1259;73357;-65
2023/09/02 03:13:56;;;;;;;7.40;2.20;;;;;;;12.41;100.00;99731.04;108919;1259;58357;-64
2023/09/02 03:16:44;;;;;;;9.00;3.30;;;;;;;12.40;100.00;99739.55;109030;1259;58925;-67
2023/09/02 03:19:31;;;;;;;7.20;2.60;;;;;;;12.38;100.00;99741.12;109148;1257;73638;-64
2023/09/02 03:22:18;;;;;;;7.50;2.60;;;;;;;12.39;100.00;99744.80;108914;1257;68097;-65
2023/09/02 03:25:06;;;;;;;9.10;3.10;;;;;;;12.39;100.00;99745.48;109055;1257;74289;-66
2023/09/02 03:27:53;;;;;;;8.20;2.90;;;;;;;12.40;100.00;99745.95;108973;1257;59638;-65
2023/09/02 03:30:40;;;;;;;8.20;3.00;;;;;;;12.41;100.00;99747.64;109093;1257;61364;-66
2023/09/02 03:33:26;;;;;;;10.20;3.10;;;;;;;12.39;100.00;99752.27;109075;1257;74891;-67
2023/09/02 03:36:22;;;;;;;10.50;3.30;;;;;;;12.38;100.00;99756.09;109111;1257;68646;-68
2023/09/02 03:39:09;;;;;;;7.60;2.70;;;;;;;12.37;100.00;99756.56;109035;1257;72577;-66
2023/09/02 03:41:55;;;;;;;7.50;2.60;;;;;;;12.37;100.00;99759.04;109084;1257;60649;-64
2023/09/02 03:44:43;;;;;;;7.20;3.10;;;;;;;12.36;100.00;99755.94;109081;1257;60469;-64
2023/09/02 03:47:31;;;;;;;7.70;2.90;;;;;;;12.36;100.00;99751.48;109036;1257;73827;-65
2023/09/02 03:50:26;;;;;;;7.20;2.60;;;;;;;12.36;100.00;99754.17;109017;1258;68793;-64
2023/09/02 03:53:13;;;;;;;9.00;3.20;;;;;;;12.35;100.00;99754.43;108988;1257;70210;-65
2023/09/02 03:56:00;;;;;;;8.00;3.30;;;;;;;12.34;100.00;99755.73;109045;1259;60474;-64
2023/09/02 03:58:47;;;;;;;10.50;3.80;;;;;;;12.36;100.00;99755.95;109013;1262;59350;-64
2023/09/02 04:01:34;;;;;;;10.30;3.60;;;;;;;12.35;100.00;99753.36;109011;1257;74649;-66
2023/09/02 04:04:20;;;;;;;7.40;3.20;;;;;;;12.35;100.00;99755.45;109068;1257;68893;-65
2023/09/02 04:07:07;;;;;;;9.50;3.80;;;;;;;12.36;100.00;99764.80;109071;1257;73831;-65
2023/09/02 04:09:54;;;;;;;7.50;3.20;;;;;;;12.38;100.00;99764.49;109073;1257;60529;-67
2023/09/02 04:12:41;;;;;;;10.20;3.50;;;;;;;12.39;100.00;99763.98;108998;1257;59020;-68
2023/09/02 04:15:27;;;;;;;7.40;3.10;;;;;;;12.41;100.00;99765.03;108990;1257;74658;-73
2023/09/02 04:18:15;;;;;;;8.30;3.70;;;;;;;12.44;100.00;99763.70;108999;1259;67889;-66
2023/09/02 04:21:03;;;;;;;8.30;3.30;;;;;;;12.46;100.00;99762.13;108984;1257;71982;-66
2023/09/02 04:23:52;;;;;;;10.70;3.30;;;;;;;12.51;100.00;99765.66;108976;1257;59483;-66
2023/09/02 04:26:38;;;;;;;9.90;3.60;;;;;;;12.55;100.00;99773.22;109082;1257;58218;-64
2023/09/02 04:29:24;;;;;;;9.80;3.50;;;;;;;12.60;100.00;99780.08;109009;1257;72404;-67
2023/09/02 04:32:11;;;;;;;7.60;3.40;;;;;;;12.65;100.00;99787.30;109028;1257;67903;-65
2023/09/02 04:34:58;;;;;;;9.40;3.80;;;;;;;12.72;100.00;99792.14;109010;1257;73214;-67
2023/09/02 04:37:45;;;;;;;9.30;3.00;;;;;;;12.78;100.00;99793.02;109010;1257;60404;-68
2023/09/02 04:40:39;;;;;;;9.30;3.50;;;;;;;12.84;100.00;99794.86;109041;1257;60430;-67
2023/09/02 04:43:26;;;;;;;8.00;3.80;;;;;;;12.91;100.00;99796.84;109058;1257;74913;-66
2023/09/02 04:46:13;;;;;;;7.80;3.40;;;;;;;13.00;100.00;99804.21;108984;1257;67092;-68
2023/09/02 04:49:01;;;;;;;10.90;4.00;;;;;;;13.11;100.00;99807.15;108973;1257;73579;-67
2023/09/02 04:51:48;;;;;;;8.60;4.00;;;;;;;13.22;100.00;99806.85;109102;1257;58216;-69
2023/09/02 04:54:37;;;;;;;9.40;4.20;;;;;;;13.33;100.00;99805.33;109029;1257;60353;-67
2023/09/02 04:57:23;;;;;;;8.50;3.70;;;;;;;13.44;100.00;99812.53;109059;1257;73745;-68
2023/09/02 05:00:10;;;;;;;8.60;4.30;;;;;;;13.55;100.00;99814.28;109086;1257;68692;-67
2023/09/02 05:02:59;;;;;;;9.70;4.00;;;;;;;13.67;100.00;99821.02;108952;1257;73739;-68
2023/09/02 05:05:46;;;;;;;9.20;3.90;;;;;;;13.82;100.00;99820.89;108920;1257;60581;-70
2023/09/02 05:08:34;;;;;;;7.40;3.80;;;;;;;13.99;100.00;99823.17;109042;1257;60272;-67
2023/09/02 05:11:21;;;;;;;11.30;4.20;;;;;;;14.14;100.00;99822.61;108925;1257;74789;-68
2023/09/02 05:14:07;;;;;;;10.70;4.10;;;;;;;14.32;100.00;99828.98;108954;1258;67740;-66
2023/09/02 05:16:53;;;;;;;8.70;3.70;;;;;;;14.45;100.00;99829.14;108919;1258;73434;-67
2023/09/02 05:19:39;;;;;;;8.20;4.00;;;;;;;14.56;100.00;99832.98;109019;1257;58529;-64
2023/09/02 05:22:26;;;;;;;9.60;4.30;;;;;;;14.65;100.00;99833.09;108979;1259;61423;-70
2023/09/02 05:25:13;;;;;;;8.20;4.00;;;;;;;14.75;100.00;99831.00;109037;1259;72601;-69
2023/09/02 05:27:59;;;;;;;10.50;4.60;;;;;;;14.86;100.00;99829.73;108979;1258;68650;-68
2023/09/02 05:30:46;;;;;;;9.30;4.20;;;;;;;14.96;100.00;99838.20;108956;1258;73501;-68
2023/09/02 05:33:32;;;;;;;9.80;4.40;;;;;;;15.03;100.00;99842.98;109011;1257;59465;-69
2023/09/02 05:36:18;;;;;;;10.10;4.30;;;;;;;15.08;100.00;99845.30;109068;1257;61157;-67
2023/09/02 05:39:05;;;;;;;10.00;4.70;;;;;;;15.13;100.00;99851.55;109036;1257;72559;-68
2023/09/02 05:41:51;;;;;;;8.90;4.30;;;;;;;15.26;100.00;99850.75;109086;1257;67656;-67
2023/09/02 05:44:38;;;;;;;9.30;3.80;;;;;;;15.38;100.00;99849.40;109079;1257;72844;-67
2023/09/02 05:47:25;;;;;;;8.30;3.50;;;;;;;15.49;100.00;99851.67;109045;1257;59921;-67
2023/09/02 05:50:11;;;;;;;8.60;4.20;;;;;;;15.60;100.00;99852.72;108924;1258;60120;-67
2023/09/02 05:52:59;;;;;;;11.60;4.70;;;;;;;15.75;100.00;99854.77;109025;1258;73913;-69
2023/09/02 05:55:54;;;;;;;10.20;4.90;;;;;;;15.85;100.00;99855.75;108994;1258;66410;-67
2023/09/02 05:58:40;;;;;;;9.50;4.20;;;;;;;16.00;100.00;99858.69;108897;1259;72720;-68
2023/09/02 06:01:27;;;;;;;9.30;4.40;;;;;;;16.12;100.00;99860.48;108976;1258;58243;-67
2023/09/02 06:04:13;;;;;;;9.60;3.80;;;;;;;16.24;100.00;99865.82;108931;1258;60039;-69
2023/09/02 06:07:00;;;;;;;10.00;5.40;;;;;;;16.26;99.67;99863.70;109006;1259;74752;-69
2023/09/02 06:09:46;;;;;;;8.90;4.30;;;;;;;16.36;99.03;99857.10;108991;1258;68523;-69
2023/09/02 06:12:32;;;;;;;9.10;4.20;;;;;;;16.51;97.52;99861.42;109010;1258;72509;-68
2023/09/02 06:15:18;;;;;;;9.60;4.20;;;;;;;16.60;95.90;99866.02;109022;1257;58192;-68
2023/09/02 06:18:05;;;;;;;9.60;4.50;;;;;;;16.79;94.40;99867.59;108956;1258;61195;-68
2023/09/02 06:20:51;;;;;;;10.10;4.00;;;;;;;17.01;94.49;99867.97;109023;1258;74720;-70
2023/09/02 06:23:39;;;;;;;9.40;4.10;;;;;;;17.40;92.01;99866.02;109052;1258;66483;-69
2023/09/02 06:26:25;;;;;;;7.50;2.90;;;;;;;18.95;87.01;99865.35;109043;1258;72591;-66
2023/09/02 06:29:13;;;;;;;8.20;3.10;;;;;;;19.71;81.64;99867.30;109060;1257;59529;-66
2023/09/02 06:32:00;;;;;;;9.70;3.80;;;;;;;20.03;77.12;99866.42;109089;1257;60427;-68
2023/09/02 06:34:46;;;;;;;10.70;3.80;;;;;;;20.67;75.05;99862.77;109065;1257;74877;-67
2023/09/02 06:37:32;;;;;;;7.90;3.10;;;;;;;21.80;68.52;99860.67;109096;1257;67947;-71
2023/09/02 06:40:19;;;;;;;10.20;3.30;;;;;;;22.83;65.48;99863.09;109071;1257;72731;-69
2023/09/02 06:43:04;;;;;;;7.70;3.50;;;;;;;23.47;61.34;99863.34;108935;1257;258116;-69
2023/09/02 06:45:51;;;;;;;8.20;2.70;;;;;;;23.88;59.41;99869.01;109043;1257;60435;-67
2023/09/02 06:48:37;;;;;;;8.00;2.90;;;;;;;24.63;58.10;99866.86;109081;1257;73800;-68
2023/09/02 06:51:24;;;;;;;8.80;2.80;;;;;;;25.42;53.60;99871.86;109084;1257;67632;-67
2023/09/02 06:54:10;;;;;;;7.70;2.90;;;;;;;26.13;52.48;99872.56;108993;1257;73154;-69
2023/09/02 06:56:57;;;;;;;7.60;2.70;;;;;;;26.62;49.81;99869.52;109074;1257;58512;-67
2023/09/02 06:59:43;;;;;;;12.30;2.70;;;;;;;26.52;49.90;99867.58;108993;1257;61389;-70
2023/09/02 07:02:32;;;;;;;6.70;2.70;;;;;;;26.70;49.31;99871.48;109130;1257;73681;-68
2023/09/02 07:05:19;;;;;;;8.00;3.00;;;;;;;26.77;47.24;99875.34;109111;1257;66704;-69
2023/09/02 07:08:05;;;;;;;7.90;2.80;;;;;;;27.05;47.71;99881.64;109061;1257;73790;-66
2023/09/02 07:10:51;;;;;;;6.90;2.50;;;;;;;27.44;46.29;99881.95;109107;1257;58405;-67
2023/09/02 07:13:38;;;;;;;7.60;2.10;;;;;;;28.00;44.55;99890.30;109041;1257;58739;-69
2023/09/02 07:16:25;;;;;;;7.80;2.20;;;;;;;28.63;43.15;99896.97;109116;1257;72859;-67
2023/09/02 07:19:11;;;;;;;7.90;2.40;;;;;;;29.04;41.45;99894.48;109060;1257;67712;-66
2023/09/02 07:21:57;;;;;;;7.30;2.30;;;;;;;29.49;41.01;99893.19;109087;1257;73673;-65
2023/09/02 07:24:44;;;;;;;6.60;2.10;;;;;;;30.08;40.03;99898.47;109141;1257;58301;-67
2023/09/02 07:27:32;;;;;;;6.40;1.90;;;;;;;30.55;38.85;99900.20;109001;1257;60244;-67
2023/09/02 07:30:18;;;;;;;6.00;1.90;;;;;;;30.70;37.23;99899.95;108999;1257;74850;-67
2023/09/02 07:33:05;;;;;;;6.80;2.10;;;;;;;30.97;37.47;99900.92;109092;1257;67754;-65
2023/09/02 07:35:51;;;;;;;7.20;2.30;;;;;;;31.22;36.66;99906.79;109114;1257;73520;-67
2023/09/02 07:38:39;;;;;;;6.30;1.80;;;;;;;31.25;35.63;99910.50;109056;1257;58113;-69
2023/09/02 07:41:27;;;;;;;6.40;1.90;;;;;;;31.04;36.05;99914.33;109043;1257;61388;-66
2023/09/02 07:44:13;;;;;;;5.70;1.70;;;;;;;30.93;35.87;99921.63;109100;1257;72597;-66
2023/09/02 07:46:59;;;;;;;7.50;2.20;;;;;;;31.10;36.00;99919.80;109069;1258;68188;-64
2023/09/02 07:49:46;;;;;;;6.30;2.00;;;;;;;31.38;35.20;99919.09;108994;1258;71253;-68
2023/09/02 07:52:32;;;;;;;6.20;2.00;;;;;;;31.58;34.61;99922.57;109014;1259;59033;-68
2023/09/02 07:55:19;;;;;;;6.30;1.80;;;;;;;31.66;34.29;99927.27;109017;1258;59322;-66
2023/09/02 07:58:05;;;;;;;5.80;1.80;;;;;;;31.57;34.20;99924.98;108957;1258;74720;-65
2023/09/02 08:00:54;;;;;;;6.40;2.10;;;;;;;31.69;34.18;99933.98;109007;1258;66474;-65
2023/09/02 08:03:41;;;;;;;6.70;1.80;;;;;;;31.79;33.68;99936.22;108938;1258;72704;-68
2023/09/02 08:06:27;;;;;;;6.90;1.90;;;;;;;31.70;33.56;99935.98;108983;1258;58230;-65
2023/09/02 08:09:14;;;;;;;5.70;1.60;;;;;;;31.86;33.52;99936.15;108983;1258;60247;-65
2023/09/02 08:12:00;;;;;;;6.90;1.90;;;;;;;32.00;32.98;99935.87;109004;1258;73593;-66
2023/09/02 08:14:46;;;;;;;5.70;1.70;;;;;;;32.22;32.81;99942.64;108973;1258;68679;-65
2023/09/02 08:17:37;;;;;;;6.70;1.60;;;;;;;32.23;32.35;99944.52;108908;1258;73525;-65
2023/09/02 08:20:25;;;;;;;6.70;1.50;;;;;;;32.57;32.08;99947.23;108992;1258;58498;-70
2023/09/02 08:23:12;;;;;;;7.00;1.80;;;;;;;32.57;31.62;99949.33;109013;1258;61012;-68
2023/09/02 08:26:05;;;;;;;5.10;1.50;;;;;;;32.93;31.42;99954.61;109075;1257;74993;-68
2023/09/02 08:28:51;;;;;;;5.30;1.40;;;;;;;33.19;30.80;99960.04;109099;1257;69094;-67
2023/09/02 08:31:38;;;;;;;5.90;1.50;;;;;;;33.55;30.65;99956.41;109061;1257;72119;-68
2023/09/02 08:34:24;;;;;;;5.60;1.60;;;;;;;33.87;30.31;99957.48;109126;1257;58085;-68
2023/09/02 08:37:10;;;;;;;5.70;1.40;;;;;;;34.19;29.85;99959.53;109122;1257;60380;-69
2023/09/02 08:39:57;;;;;;;5.30;1.50;;;;;;;34.23;29.41;99963.27;109138;1257;74330;-68
2023/09/02 08:42:44;;;;;;;5.50;1.40;;;;;;;34.12;29.51;99965.77;109099;1258;67988;-67
2023/09/02 08:45:33;;;;;;;5.80;1.50;;;;;;;34.12;28.71;99966.73;109056;1257;73759;-66
2023/09/02 08:48:23;;;;;;;5.80;1.50;;;;;;;34.22;29.17;99969.46;109050;1257;58162;-69
2023/09/02 08:51:12;;;;;;;6.00;1.60;;;;;;;34.22;28.74;99967.58;109059;1257;60233;-69
2023/09/02 08:53:59;;;;;;;5.70;1.60;;;;;;;34.19;28.88;99973.45;108998;1257;72364;-67
2023/09/02 08:56:46;;;;;;;5.20;1.40;;;;;;;34.11;28.72;99974.00;108977;1257;66629;-70
2023/09/02 08:59:33;;;;;;;7.70;1.50;;;;;;;33.82;28.89;99976.66;109065;1257;72693;-67
2023/09/02 09:02:20;;;;;;;6.60;1.50;;;;;;;33.93;28.43;99978.27;109046;1257;58119;-69
2023/09/02 09:05:08;;;;;;;5.30;1.30;;;;;;;34.18;28.75;99983.87;109064;1257;61438;-70
2023/09/02 09:07:55;;;;;;;6.30;1.60;;;;;;;34.20;28.33;99985.64;109117;1257;75242;-68
2023/09/02 09:10:43;;;;;;;6.00;1.50;;;;;;;34.38;28.31;99989.88;109108;1257;67772;-67
2023/09/02 09:13:30;;;;;;;5.90;1.80;;;;;;;34.50;27.68;99988.63;109084;1257;73028;-68
2023/09/02 09:16:31;;;;;;;5.00;1.30;;;;;;;34.62;27.61;99991.58;109144;1257;58192;-67
2023/09/02 09:19:19;;;;;;;5.70;1.40;;;;;;;34.60;27.22;99993.13;109090;1258;60186;-67
2023/09/02 09:22:06;;;;;;;6.40;1.20;;;;;;;34.76;27.53;99996.95;109019;1257;72299;-66
2023/09/02 09:24:52;;;;;;;5.30;1.30;;;;;;;34.83;26.91;99992.02;109063;1257;68672;-70
2023/09/02 09:27:38;;;;;;;5.50;1.30;;;;;;;34.88;27.06;99996.25;109091;1257;73062;-66
2023/09/02 09:30:28;;;;;;;5.50;1.30;;;;;;;34.89;27.48;99995.21;109073;1257;58327;-68
2023/09/02 09:33:18;;;;;;;5.00;1.20;;;;;;;35.13;27.18;99992.92;108958;1257;60226;-68
2023/09/02 09:36:11;;;;;;;6.20;1.30;;;;;;;35.13;26.65;99996.63;108987;1257;72394;-67
2023/09/02 09:39:04;;;;;;;5.00;1.30;;;;;;;35.04;27.05;100004.03;109107;1257;67908;-67
2023/09/02 09:41:50;;;;;;;5.90;1.40;;;;;;;35.07;26.22;100007.83;109020;1257;73721;-69
2023/09/02 09:44:57;;;;;;;5.00;1.30;;;;;;;35.07;26.05;100007.55;109028;1257;58110;-68
2023/09/02 09:47:46;;;;;;;5.40;1.50;;;;;;;34.98;25.75;100008.65;108999;1258;58677;-68
2023/09/02 09:50:33;;;;;;;5.60;1.20;;;;;;;34.79;26.27;100007.84;109043;1258;73882;-68
2023/09/02 09:53:19;;;;;;;7.80;2.00;;;;;;;34.92;26.07;100016.19;109117;1257;69363;-68
2023/09/02 09:56:06;;;;;;;5.50;1.30;;;;;;;34.65;25.48;100013.23;109004;1257;72861;-66
2023/09/02 09:58:53;;;;;;;5.90;1.30;;;;;;;34.66;26.20;100022.06;109019;1257;58094;-68
2023/09/02 10:01:46;;;;;;;5.80;1.40;;;;;;;34.92;25.95;100023.93;109006;1257;58737;-69
2023/09/02 10:04:33;;;;;;;6.50;1.30;;;;;;;35.13;25.30;100027.97;109057;1257;73795;-67
2023/09/02 10:07:31;;;;;;;5.50;1.30;;;;;;;34.91;25.75;100022.44;109026;1257;68684;-65
2023/09/02 10:10:27;;;;;;;5.20;1.00;;;;;;;35.13;25.84;100026.27;108967;1257;72517;-68
2023/09/02 10:13:13;;;;;;;5.40;1.30;;;;;;;35.46;25.40;100022.89;109002;1257;58627;-66
2023/09/02 10:16:00;;;;;;;6.40;1.30;;;;;;;35.84;25.22;100031.16;109109;1257;60395;-69
2023/09/02 10:18:47;;;;;;;5.60;1.30;;;;;;;35.91;24.65;100030.17;109021;1257;73406;-65
2023/09/02 10:21:36;;;;;;;6.10;1.20;;;;;;;35.90;24.74;100034.61;109076;1257;66413;-67
2023/09/02 10:24:23;;;;;;;5.70;1.30;;;;;;;35.65;24.93;100033.11;109091;1257;72511;-67
2023/09/02 10:27:18;;;;;;;4.50;1.00;;;;;;;35.56;25.13;100036.61;109037;1257;58177;-66
2023/09/02 10:30:19;;;;;;;5.00;1.10;;;;;;;35.46;25.83;100043.63;109031;1257;60198;-65
2023/09/02 10:33:13;;;;;;;6.40;1.30;;;;;;;35.04;25.01;100048.80;109146;1257;72407;-64
2023/09/02 10:36:04;;;;;;;4.80;1.20;;;;;;;34.65;25.34;100053.56;109054;1257;67586;-65
2023/09/02 10:39:00;;;;;;;4.80;1.10;;;;;;;34.49;25.91;100055.54;109067;1257;71678;-66
2023/09/02 10:41:48;;;;;;;5.50;1.40;;;;;;;34.48;25.93;100049.13;109017;1257;58837;-65
2023/09/02 10:44:35;;;;;;;4.80;1.20;;;;;;;34.60;26.42;100053.23;109039;1257;60383;-65
2023/09/02 10:47:21;;;;;;;5.20;1.20;;;;;;;34.35;26.70;100055.60;109121;1257;73734;-65
2023/09/02 10:50:09;;;;;;;6.00;1.40;;;;;;;34.30;26.59;100059.48;109043;1258;68678;-66
2023/09/02 10:52:56;;;;;;;11.50;1.50;;;;;;;34.20;26.75;100061.57;109009;1258;72804;-69
2023/09/02 10:56:02;;;;;;;5.80;1.30;;;;;;;34.19;26.90;100071.79;108979;1258;58236;-65
2023/09/02 10:58:49;;;;;;;6.10;1.20;;;;;;;34.18;27.04;100066.48;109054;1258;60221;-66
2023/09/02 11:01:44;;;;;;;5.50;1.30;;;;;;;34.12;27.24;100071.13;109122;1257;74675;-65
2023/09/02 11:04:40;;;;;;;5.10;1.30;;;;;;;34.26;26.95;100067.98;109043;1257;68738;-67
2023/09/02 11:07:31;;;;;;;5.80;1.30;;;;;;;34.33;26.66;100074.77;109092;1257;72682;-65
2023/09/02 11:10:17;;;;;;;5.40;1.40;;;;;;;34.38;26.82;100073.40;109080;1257;58103;-65
2023/09/02 11:13:05;;;;;;;5.10;1.20;;;;;;;34.21;26.70;100076.14;109045;1257;60151;-66
2023/09/02 11:16:13;;;;;;;5.10;1.30;;;;;;;34.11;26.56;100080.93;109105;1257;74643;-65
2023/09/02 11:19:08;;;;;;;8.10;1.20;;;;;;;33.76;26.44;100082.94;109013;1257;69158;-69
2023/09/02 11:21:57;;;;;;;6.90;1.00;;;;;;;33.55;27.00;100085.09;109092;1257;73459;-65
2023/09/02 11:24:48;;;;;;;6.10;1.20;;;;;;;33.19;27.37;100085.12;109092;1257;58808;-68
2023/09/02 11:27:46;;;;;;;7.00;1.10;;;;;;;32.70;27.69;100084.68;109064;1257;61209;-65
2023/09/02 11:30:38;;;;;;;5.90;1.50;;;;;;;32.05;28.93;100085.21;109131;1257;72463;-65
2023/09/02 11:33:25;;;;;;;7.20;3.00;;;;;;;32.17;28.83;100076.36;108970;1257;69236;-66
2023/09/02 11:36:15;;;;;;;5.70;1.40;;;;;;;31.79;29.32;100074.30;109055;1257;73515;-65
2023/09/02 11:39:07;;;;;;;5.00;1.00;;;;;;;31.48;29.74;100075.45;108991;1257;58235;-68
2023/09/02 11:42:13;;;;;;;5.40;1.40;;;;;;;31.14;30.57;100073.40;109030;1259;60379;-63
2023/09/02 11:45:01;;;;;;;5.20;1.30;;;;;;;31.13;30.78;100081.80;109054;1257;73771;-66
2023/09/02 11:47:50;;;;;;;4.80;1.20;;;;;;;30.96;30.90;100079.20;109067;1257;67844;-65
2023/09/02 11:50:38;;;;;;;5.50;1.00;;;;;;;30.06;31.87;100088.88;109002;1258;72474;-67
2023/09/02 11:53:29;;;;;;;5.50;1.30;;;;;;;28.88;33.26;100090.46;108982;1258;58146;-65
2023/09/02 11:56:15;;;;;;;5.70;1.20;;;;;;;27.83;35.36;100097.77;108997;1259;61167;-63
2023/09/02 11:59:02;;;;;;;4.80;1.30;;;;;;;27.04;37.05;100100.17;109067;1258;74756;-65
2023/09/02 12:02:10;;;;;;;7.60;1.60;;;;;;;26.24;38.60;100098.88;109009;1258;67714;-67
2023/09/02 12:04:56;;;;;;;6.90;1.70;;;;;;;26.08;40.01;100109.16;109007;1258;71117;-63
2023/09/02 12:07:44;;;;;;;5.90;1.40;;;;;;;26.15;40.78;100107.31;109072;1258;58135;-64
2023/09/02 12:10:31;;;;;;;7.30;1.70;;;;;;;25.83;41.66;100109.64;108993;1258;60161;-66
2023/09/02 12:13:18;;;;;;;5.40;1.30;;;;;;;25.37;42.55;100114.33;109020;1258;74651;-65
2023/09/02 12:16:04;;;;;;;5.80;1.60;;;;;;;24.75;42.80;100113.66;109037;1258;66547;-67
2023/09/02 12:18:51;;;;;;;6.00;2.20;;;;;;;24.18;43.67;100116.50;108990;1258;73808;-63
2023/09/02 12:21:37;;;;;;;5.50;1.50;;;;;;;23.79;45.10;100120.42;108923;1258;58169;-65
2023/09/02 12:24:24;;;;;;;6.20;1.70;;;;;;;23.50;45.77;100123.83;108976;1258;60061;-69
2023/09/02 12:27:19;;;;;;;5.10;1.60;;;;;;;23.18;47.08;100119.09;109017;1258;74883;-64
2023/09/02 12:30:06;;;;;;;6.10;1.70;;;;;;;23.04;47.97;100121.10;109003;1258;67801;-67
2023/09/02 12:32:57;;;;;;;5.80;1.70;;;;;;;23.04;48.47;100120.05;109009;1258;73391;-66
2023/09/02 12:35:50;;;;;;;5.60;1.60;;;;;;;23.18;47.82;100117.04;108978;1259;58184;-64
2023/09/02 12:38:52;;;;;;;5.90;1.50;;;;;;;23.35;47.43;100115.08;109018;1258;59100;-67
2023/09/02 12:41:39;;;;;;;5.60;1.70;;;;;;;23.45;46.52;100110.59;108830;1261;73892;-64
2023/09/02 12:44:26;;;;;;;6.20;1.60;;;;;;;23.61;46.72;100113.46;108834;1261;66533;-65
2023/09/02 12:47:22;;;;;;;6.10;1.70;;;;;;;23.80;46.73;100111.42;108833;1261;72402;-65
2023/09/02 12:50:09;;;;;;;6.90;1.70;;;;;;;23.84;46.20;100111.81;108771;1262;58185;-66
2023/09/02 12:52:57;;;;;;;6.30;1.50;;;;;;;23.77;45.93;100114.80;108811;1261;60906;-65
2023/09/02 12:55:44;;;;;;;5.90;1.50;;;;;;;23.70;46.32;100119.25;108855;1262;73528;-68
2023/09/02 12:58:30;;;;;;;7.20;1.50;;;;;;;23.75;46.09;100118.42;108833;1261;66897;-66